createdAt,value
2022-07-25T00:00:00.000Z,31.92
2022-07-25T00:15:00.000Z,31.73
2022-07-25T00:30:00.000Z,32.28
2022-07-25T00:45:00.000Z,32.11
2022-07-25T01:00:00.000Z,31.72
2022-07-25T01:15:00.000Z,31.72
2022-07-25T01:30:00.000Z,32.41
2022-07-25T01:45:00.000Z,31
2022-07-25T02:00:00.000Z,31.72
2022-07-25T02:15:00.000Z,32.06
2022-07-25T02:30:00.000Z,31.99
2022-07-25T02:45:00.000Z,32.89
2022-07-25T03:00:00.000Z,32.93
2022-07-25T03:15:00.000Z,33.29
2022-07-25T03:30:00.000Z,34.19
2022-07-25T03:45:00.000Z,34.42
2022-07-25T04:00:00.000Z,32.25
2022-07-25T04:15:00.000Z,33.02
2022-07-25T04:30:00.000Z,33.45
2022-07-25T04:45:00.000Z,32.08
2022-07-25T05:00:00.000Z,30.71
2022-07-25T05:15:00.000Z,28.89
2022-07-25T05:30:00.000Z,28.19
2022-07-25T05:45:00.000Z,26.95
2022-07-25T06:00:00.000Z,26.27
2022-07-25T06:15:00.000Z,25.48
2022-07-25T06:30:00.000Z,26.28
2022-07-25T06:45:00.000Z,24.32
2022-07-25T07:00:00.000Z,21.8
2022-07-25T07:15:00.000Z,21.13
2022-07-25T07:30:00.000Z,21.12
2022-07-25T07:45:00.000Z,21.25
2022-07-25T08:00:00.000Z,20.28
2022-07-25T08:15:00.000Z,20.18
2022-07-25T08:30:00.000Z,19.85
2022-07-25T08:45:00.000Z,19.27
2022-07-25T09:00:00.000Z,20.38
2022-07-25T09:15:00.000Z,20.72
2022-07-25T09:30:00.000Z,22.19
2022-07-25T09:45:00.000Z,22.68
2022-07-25T10:00:00.000Z,22.11
2022-07-25T10:15:00.000Z,22.15
2022-07-25T10:30:00.000Z,22.07
2022-07-25T10:45:00.000Z,21.92
2022-07-25T11:00:00.000Z,21.69
2022-07-25T11:15:00.000Z,21.39
2022-07-25T11:30:00.000Z,20.73
2022-07-25T11:45:00.000Z,19.88
2022-07-25T12:00:00.000Z,18.85
2022-07-25T12:15:00.000Z,16.14
2022-07-25T12:30:00.000Z,16.75
2022-07-25T12:45:00.000Z,16.66
2022-07-25T13:00:00.000Z,16.94
2022-07-25T13:15:00.000Z,16.16
2022-07-25T13:30:00.000Z,17.08
2022-07-25T13:45:00.000Z,16.34
2022-07-25T14:00:00.000Z,16.31
2022-07-25T14:15:00.000Z,15.84
2022-07-25T14:30:00.000Z,16.76
2022-07-25T14:45:00.000Z,16.94
2022-07-25T15:00:00.000Z,16.41
2022-07-25T15:15:00.000Z,16.14
2022-07-25T15:30:00.000Z,17.28
2022-07-25T15:45:00.000Z,16.6
2022-07-25T16:00:00.000Z,15.66
2022-07-25T16:15:00.000Z,14.59
2022-07-25T16:30:00.000Z,16.38
2022-07-25T16:45:00.000Z,16.95
2022-07-25T17:00:00.000Z,14.53
2022-07-25T17:15:00.000Z,15.34
2022-07-25T17:30:00.000Z,17.07
2022-07-25T17:45:00.000Z,16.8
2022-07-25T18:00:00.000Z,18.98
2022-07-25T18:15:00.000Z,20.85
2022-07-25T18:30:00.000Z,22.62
2022-07-25T18:45:00.000Z,31.61
2022-07-25T19:00:00.000Z,22.12
2022-07-25T19:15:00.000Z,26.72
2022-07-25T19:30:00.000Z,24.14
2022-07-25T19:45:00.000Z,22.55
2022-07-25T20:00:00.000Z,21.52
2022-07-25T20:15:00.000Z,26.74
2022-07-25T20:30:00.000Z,20.12
2022-07-25T20:45:00.000Z,20.8
2022-07-25T21:00:00.000Z,20.58
2022-07-25T21:15:00.000Z,20.12
2022-07-25T21:30:00.000Z,19.65
2022-07-25T21:45:00.000Z,18.56
2022-07-25T22:00:00.000Z,17.87
2022-07-25T22:15:00.000Z,20.02
2022-07-25T22:30:00.000Z,20.79
2022-07-25T22:45:00.000Z,19.53
2022-07-25T23:00:00.000Z,19.88
2022-07-25T23:15:00.000Z,20.28
2022-07-25T23:30:00.000Z,20.42
2022-07-25T23:45:00.000Z,21.2
